sensor_id;sensor_type;location;lat;lon;timestamp;temperature;humidity
35680;DHT22;21803;53.586;10.040;2022-09-29T00:00:35;21.90;49.80
35680;DHT22;21803;53.586;10.040;2022-09-29T00:03:00;21.90;49.20
35680;DHT22;21803;53.586;10.040;2022-09-29T00:05:26;21.90;49.20
35680;DHT22;21803;53.586;10.040;2022-09-29T00:07:52;21.60;49.10
35680;DHT22;21803;53.586;10.040;2022-09-29T00:10:18;21.90;49.20
35680;DHT22;21803;53.586;10.040;2022-09-29T00:12:43;21.90;49.20
35680;DHT22;21803;53.586;10.040;2022-09-29T00:15:09;21.90;49.20
35680;DHT22;21803;53.586;10.040;2022-09-29T00:17:35;21.90;49.20
35680;DHT22;21803;53.586;10.040;2022-09-29T00:20:00;21.90;49.30
35680;DHT22;21803;53.586;10.040;2022-09-29T00:22:26;21.90;49.20
35680;DHT22;21803;53.586;10.040;2022-09-29T00:24:51;21.80;49.20
35680;DHT22;21803;53.586;10.040;2022-09-29T00:27:17;21.90;49.20
35680;DHT22;21803;53.586;10.040;2022-09-29T00:29:43;21.90;49.20
35680;DHT22;21803;53.586;10.040;2022-09-29T00:32:09;21.90;49.20
35680;DHT22;21803;53.586;10.040;2022-09-29T00:34:35;21.80;49.20
35680;DHT22;21803;53.586;10.040;2022-09-29T00:37:01;20.60;48.60
35680;DHT22;21803;53.586;10.040;2022-09-29T00:39:27;21.90;49.30
35680;DHT22;21803;53.586;10.040;2022-09-29T00:41:52;21.80;49.20
35680;DHT22;21803;53.586;10.040;2022-09-29T00:46:58;21.80;49.20
35680;DHT22;21803;53.586;10.040;2022-09-29T00:52:04;21.80;49.20
35680;DHT22;21803;53.586;10.040;2022-09-29T00:54:38;21.80;49.20
35680;DHT22;21803;53.586;10.040;2022-09-29T00:57:10;21.80;49.20
35680;DHT22;21803;53.586;10.040;2022-09-29T00:59:59;21.80;49.20
35680;DHT22;21803;53.586;10.040;2022-09-29T01:02:26;21.80;49.10
35680;DHT22;21803;53.586;10.040;2022-09-29T01:04:53;21.80;49.10
35680;DHT22;21803;53.586;10.040;2022-09-29T01:07:20;21.80;49.10
35680;DHT22;21803;53.586;10.040;2022-09-29T01:09:47;21.80;49.20
35680;DHT22;21803;53.586;10.040;2022-09-29T01:12:15;21.90;49.20
35680;DHT22;21803;53.586;10.040;2022-09-29T01:14:41;21.80;49.20
35680;DHT22;21803;53.586;10.040;2022-09-29T01:17:07;21.80;49.10
35680;DHT22;21803;53.586;10.040;2022-09-29T01:19:38;21.90;49.20
35680;DHT22;21803;53.586;10.040;2022-09-29T01:28:03;21.80;49.10
35680;DHT22;21803;53.586;10.040;2022-09-29T01:31:01;21.80;49.10
35680;DHT22;21803;53.586;10.040;2022-09-29T01:37:09;21.80;49.20
35680;DHT22;21803;53.586;10.040;2022-09-29T01:39:45;21.90;49.20
35680;DHT22;21803;53.586;10.040;2022-09-29T01:42:18;21.90;49.20
35680;DHT22;21803;53.586;10.040;2022-09-29T01:45:14;21.80;49.10
35680;DHT22;21803;53.586;10.040;2022-09-29T01:47:46;21.80;49.20
35680;DHT22;21803;53.586;10.040;2022-09-29T01:50:20;21.90;49.20
35680;DHT22;21803;53.586;10.040;2022-09-29T01:52:52;21.80;49.10
35680;DHT22;21803;53.586;10.040;2022-09-29T01:55:20;21.80;49.20
35680;DHT22;21803;53.586;10.040;2022-09-29T01:58:03;21.80;49.10
35680;DHT22;21803;53.586;10.040;2022-09-29T02:00:31;21.80;49.10
35680;DHT22;21803;53.586;10.040;2022-09-29T02:03:10;21.80;49.10
35680;DHT22;21803;53.586;10.040;2022-09-29T02:05:46;21.80;49.20
35680;DHT22;21803;53.586;10.040;2022-09-29T02:08:23;21.80;49.10
35680;DHT22;21803;53.586;10.040;2022-09-29T02:10:54;21.80;49.10
35680;DHT22;21803;53.586;10.040;2022-09-29T02:13:23;21.80;49.10
35680;DHT22;21803;53.586;10.040;2022-09-29T02:15:52;21.80;49.20
35680;DHT22;21803;53.586;10.040;2022-09-29T02:18:24;21.80;49.10
35680;DHT22;21803;53.586;10.040;2022-09-29T02:20:50;22.40;49.40
35680;DHT22;21803;53.586;10.040;2022-09-29T02:23:16;21.80;49.10
35680;DHT22;21803;53.586;10.040;2022-09-29T02:25:43;21.80;49.70
35680;DHT22;21803;53.586;10.040;2022-09-29T02:28:11;21.80;49.10
35680;DHT22;21803;53.586;10.040;2022-09-29T02:30:37;21.80;49.00
35680;DHT22;21803;53.586;10.040;2022-09-29T02:33:03;21.80;49.10
35680;DHT22;21803;53.586;10.040;2022-09-29T02:35:39;21.80;49.10
35680;DHT22;21803;53.586;10.040;2022-09-29T02:38:15;21.80;49.10
35680;DHT22;21803;53.586;10.040;2022-09-29T02:41:04;21.80;49.10
35680;DHT22;21803;53.586;10.040;2022-09-29T02:51:35;21.80;49.00
35680;DHT22;21803;53.586;10.040;2022-09-29T02:54:24;21.80;49.10
35680;DHT22;21803;53.586;10.040;2022-09-29T02:59:39;21.80;49.00
35680;DHT22;21803;53.586;10.040;2022-09-29T03:02:06;21.80;49.00
35680;DHT22;21803;53.586;10.040;2022-09-29T03:04:32;21.80;49.00
35680;DHT22;21803;53.586;10.040;2022-09-29T03:06:58;21.80;49.00
35680;DHT22;21803;53.586;10.040;2022-09-29T03:09:23;21.80;49.00
35680;DHT22;21803;53.586;10.040;2022-09-29T03:11:49;21.80;49.00
35680;DHT22;21803;53.586;10.040;2022-09-29T03:14:14;21.80;49.00
35680;DHT22;21803;53.586;10.040;2022-09-29T03:16:40;21.80;49.00
35680;DHT22;21803;53.586;10.040;2022-09-29T03:19:05;21.80;49.00
35680;DHT22;21803;53.586;10.040;2022-09-29T03:21:32;21.80;49.00
35680;DHT22;21803;53.586;10.040;2022-09-29T03:23:58;21.80;49.10
35680;DHT22;21803;53.586;10.040;2022-09-29T03:26:23;21.80;49.00
35680;DHT22;21803;53.586;10.040;2022-09-29T03:28:52;21.80;49.00
35680;DHT22;21803;53.586;10.040;2022-09-29T03:31:17;21.80;49.00
35680;DHT22;21803;53.586;10.040;2022-09-29T03:33:43;21.80;49.00
35680;DHT22;21803;53.586;10.040;2022-09-29T03:36:09;21.80;49.00
35680;DHT22;21803;53.586;10.040;2022-09-29T03:38:36;21.80;49.00
35680;DHT22;21803;53.586;10.040;2022-09-29T03:41:02;21.80;48.90
35680;DHT22;21803;53.586;10.040;2022-09-29T03:43:28;21.80;49.00
35680;DHT22;21803;53.586;10.040;2022-09-29T03:45:54;21.80;49.00
35680;DHT22;21803;53.586;10.040;2022-09-29T03:48:21;21.80;49.00
35680;DHT22;21803;53.586;10.040;2022-09-29T03:50:48;21.80;48.90
35680;DHT22;21803;53.586;10.040;2022-09-29T03:53:14;21.80;48.90
35680;DHT22;21803;53.586;10.040;2022-09-29T03:55:40;21.80;48.90
35680;DHT22;21803;53.586;10.040;2022-09-29T03:58:10;18.90;47.50
35680;DHT22;21803;53.586;10.040;2022-09-29T04:00:35;21.80;48.90
35680;DHT22;21803;53.586;10.040;2022-09-29T04:03:01;21.80;49.00
35680;DHT22;21803;53.586;10.040;2022-09-29T04:05:28;21.80;49.00
35680;DHT22;21803;53.586;10.040;2022-09-29T04:07:53;21.80;48.90
35680;DHT22;21803;53.586;10.040;2022-09-29T04:10:19;21.80;48.90
35680;DHT22;21803;53.586;10.040;2022-09-29T04:12:44;21.80;48.90
35680;DHT22;21803;53.586;10.040;2022-09-29T04:15:10;21.80;48.90
35680;DHT22;21803;53.586;10.040;2022-09-29T04:17:35;21.80;48.90
35680;DHT22;21803;53.586;10.040;2022-09-29T04:20:01;21.80;48.90
35680;DHT22;21803;53.586;10.040;2022-09-29T04:22:26;21.80;48.90
35680;DHT22;21803;53.586;10.040;2022-09-29T04:24:52;21.80;48.90
35680;DHT22;21803;53.586;10.040;2022-09-29T04:27:18;21.80;48.90
35680;DHT22;21803;53.586;10.040;2022-09-29T04:29:43;21.80;48.90
35680;DHT22;21803;53.586;10.040;2022-09-29T04:32:09;21.80;48.90
35680;DHT22;21803;53.586;10.040;2022-09-29T04:34:35;21.80;48.90
35680;DHT22;21803;53.586;10.040;2022-09-29T04:37:01;21.60;48.80
35680;DHT22;21803;53.586;10.040;2022-09-29T04:39:26;21.70;49.40
35680;DHT22;21803;53.586;10.040;2022-09-29T04:41:52;21.80;48.90
35680;DHT22;21803;53.586;10.040;2022-09-29T04:44:18;21.70;48.80
35680;DHT22;21803;53.586;10.040;2022-09-29T04:46:49;21.80;48.90
35680;DHT22;21803;53.586;10.040;2022-09-29T04:49:16;21.80;48.80
35680;DHT22;21803;53.586;10.040;2022-09-29T04:51:42;21.70;48.80
35680;DHT22;21803;53.586;10.040;2022-09-29T04:54:07;21.80;48.80
35680;DHT22;21803;53.586;10.040;2022-09-29T04:56:33;21.70;48.80
35680;DHT22;21803;53.586;10.040;2022-09-29T04:58:58;21.70;48.80
35680;DHT22;21803;53.586;10.040;2022-09-29T05:01:24;21.70;48.70
35680;DHT22;21803;53.586;10.040;2022-09-29T05:03:50;21.70;48.80
35680;DHT22;21803;53.586;10.040;2022-09-29T05:06:16;21.70;48.80
35680;DHT22;21803;53.586;10.040;2022-09-29T05:08:41;21.70;48.80
35680;DHT22;21803;53.586;10.040;2022-09-29T05:11:08;21.80;48.70
35680;DHT22;21803;53.586;10.040;2022-09-29T05:13:34;21.70;48.70
35680;DHT22;21803;53.586;10.040;2022-09-29T05:16:00;21.70;48.70
35680;DHT22;21803;53.586;10.040;2022-09-29T05:18:27;21.70;48.70
35680;DHT22;21803;53.586;10.040;2022-09-29T05:20:53;21.70;48.70
35680;DHT22;21803;53.586;10.040;2022-09-29T05:23:18;21.80;48.70
35680;DHT22;21803;53.586;10.040;2022-09-29T05:25:44;21.70;48.70
35680;DHT22;21803;53.586;10.040;2022-09-29T05:28:11;21.70;48.70
35680;DHT22;21803;53.586;10.040;2022-09-29T05:30:37;21.80;49.30
35680;DHT22;21803;53.586;10.040;2022-09-29T05:33:03;21.80;48.70
35680;DHT22;21803;53.586;10.040;2022-09-29T05:35:29;21.70;48.70
35680;DHT22;21803;53.586;10.040;2022-09-29T05:37:54;21.70;48.70
35680;DHT22;21803;53.586;10.040;2022-09-29T05:40:20;21.80;48.70
35680;DHT22;21803;53.586;10.040;2022-09-29T05:42:49;21.70;48.60
35680;DHT22;21803;53.586;10.040;2022-09-29T05:45:14;21.80;48.60
35680;DHT22;21803;53.586;10.040;2022-09-29T05:47:41;21.80;48.60
35680;DHT22;21803;53.586;10.040;2022-09-29T05:50:08;21.80;48.60
35680;DHT22;21803;53.586;10.040;2022-09-29T05:52:34;21.80;48.50
35680;DHT22;21803;53.586;10.040;2022-09-29T05:54:59;21.80;48.50
35680;DHT22;21803;53.586;10.040;2022-09-29T05:57:25;21.80;48.50
35680;DHT22;21803;53.586;10.040;2022-09-29T05:59:50;21.70;48.40
35680;DHT22;21803;53.586;10.040;2022-09-29T06:02:16;21.80;48.40
35680;DHT22;21803;53.586;10.040;2022-09-29T06:04:43;21.80;48.40
35680;DHT22;21803;53.586;10.040;2022-09-29T06:07:08;21.80;48.40
35680;DHT22;21803;53.586;10.040;2022-09-29T06:09:34;21.80;48.40
35680;DHT22;21803;53.586;10.040;2022-09-29T06:12:01;21.90;48.50
35680;DHT22;21803;53.586;10.040;2022-09-29T06:14:27;21.80;48.40
35680;DHT22;21803;53.586;10.040;2022-09-29T06:16:52;21.80;48.40
35680;DHT22;21803;53.586;10.040;2022-09-29T06:19:18;21.70;48.30
35680;DHT22;21803;53.586;10.040;2022-09-29T06:21:43;21.80;48.40
35680;DHT22;21803;53.586;10.040;2022-09-29T06:24:09;21.80;48.40
35680;DHT22;21803;53.586;10.040;2022-09-29T06:26:35;21.80;48.40
35680;DHT22;21803;53.586;10.040;2022-09-29T06:29:00;21.80;48.40
35680;DHT22;21803;53.586;10.040;2022-09-29T06:31:27;21.80;49.00
35680;DHT22;21803;53.586;10.040;2022-09-29T06:34:02;21.80;48.40
35680;DHT22;21803;53.586;10.040;2022-09-29T06:36:31;21.80;48.40
35680;DHT22;21803;53.586;10.040;2022-09-29T06:39:17;21.80;48.40
35680;DHT22;21803;53.586;10.040;2022-09-29T06:41:43;21.80;48.40
35680;DHT22;21803;53.586;10.040;2022-09-29T06:44:13;21.80;48.40
35680;DHT22;21803;53.586;10.040;2022-09-29T06:46:39;21.80;48.40
35680;DHT22;21803;53.586;10.040;2022-09-29T06:49:04;21.80;48.40
35680;DHT22;21803;53.586;10.040;2022-09-29T06:51:31;21.80;48.40
35680;DHT22;21803;53.586;10.040;2022-09-29T06:53:57;21.80;48.40
35680;DHT22;21803;53.586;10.040;2022-09-29T06:56:22;21.80;48.40
35680;DHT22;21803;53.586;10.040;2022-09-29T06:58:48;21.80;48.40
35680;DHT22;21803;53.586;10.040;2022-09-29T07:01:13;21.80;48.40
35680;DHT22;21803;53.586;10.040;2022-09-29T07:03:39;21.80;48.40
35680;DHT22;21803;53.586;10.040;2022-09-29T07:06:06;21.80;48.40
35680;DHT22;21803;53.586;10.040;2022-09-29T07:08:32;21.80;48.40
35680;DHT22;21803;53.586;10.040;2022-09-29T07:11:00;21.80;48.30
35680;DHT22;21803;53.586;10.040;2022-09-29T07:13:27;21.80;48.40
35680;DHT22;21803;53.586;10.040;2022-09-29T07:15:53;21.80;48.30
35680;DHT22;21803;53.586;10.040;2022-09-29T07:18:19;21.80;48.30
35680;DHT22;21803;53.586;10.040;2022-09-29T07:20:45;21.80;48.30
35680;DHT22;21803;53.586;10.040;2022-09-29T07:23:10;21.80;48.30
35680;DHT22;21803;53.586;10.040;2022-09-29T07:25:36;21.80;48.30
35680;DHT22;21803;53.586;10.040;2022-09-29T07:28:02;24.50;49.60
35680;DHT22;21803;53.586;10.040;2022-09-29T07:30:27;21.80;48.30
35680;DHT22;21803;53.586;10.040;2022-09-29T07:32:53;21.80;48.30
35680;DHT22;21803;53.586;10.040;2022-09-29T07:35:23;21.80;48.90
35680;DHT22;21803;53.586;10.040;2022-09-29T07:37:52;21.80;48.30
35680;DHT22;21803;53.586;10.040;2022-09-29T07:40:20;21.80;48.30
35680;DHT22;21803;53.586;10.040;2022-09-29T07:42:46;21.80;48.30
35680;DHT22;21803;53.586;10.040;2022-09-29T07:45:11;24.40;49.50
35680;DHT22;21803;53.586;10.040;2022-09-29T07:47:37;21.80;48.20
35680;DHT22;21803;53.586;10.040;2022-09-29T07:50:03;21.80;48.20
35680;DHT22;21803;53.586;10.040;2022-09-29T07:52:28;21.80;48.20
35680;DHT22;21803;53.586;10.040;2022-09-29T07:54:54;21.80;48.20
35680;DHT22;21803;53.586;10.040;2022-09-29T07:57:19;21.80;48.30
35680;DHT22;21803;53.586;10.040;2022-09-29T07:59:45;21.80;48.30
35680;DHT22;21803;53.586;10.040;2022-09-29T08:02:11;21.80;48.10
35680;DHT22;21803;53.586;10.040;2022-09-29T08:04:37;21.80;48.10
35680;DHT22;21803;53.586;10.040;2022-09-29T08:07:03;21.80;48.10
35680;DHT22;21803;53.586;10.040;2022-09-29T08:09:28;21.80;48.00
35680;DHT22;21803;53.586;10.040;2022-09-29T08:11:54;21.80;48.00
35680;DHT22;21803;53.586;10.040;2022-09-29T08:14:19;21.80;48.10
35680;DHT22;21803;53.586;10.040;2022-09-29T08:16:45;21.80;48.00
35680;DHT22;21803;53.586;10.040;2022-09-29T08:19:10;21.80;48.00
35680;DHT22;21803;53.586;10.040;2022-09-29T08:21:36;21.80;48.00
35680;DHT22;21803;53.586;10.040;2022-09-29T08:24:04;21.80;48.00
35680;DHT22;21803;53.586;10.040;2022-09-29T08:26:32;21.80;48.00
35680;DHT22;21803;53.586;10.040;2022-09-29T08:29:00;21.80;48.00
35680;DHT22;21803;53.586;10.040;2022-09-29T08:31:26;21.80;48.00
35680;DHT22;21803;53.586;10.040;2022-09-29T08:33:51;21.80;48.00
35680;DHT22;21803;53.586;10.040;2022-09-29T08:36:18;21.80;47.90
35680;DHT22;21803;53.586;10.040;2022-09-29T08:38:46;21.80;47.90
35680;DHT22;21803;53.586;10.040;2022-09-29T08:43:45;21.80;47.90
35680;DHT22;21803;53.586;10.040;2022-09-29T08:46:28;21.80;47.90
35680;DHT22;21803;53.586;10.040;2022-09-29T08:48:56;21.80;47.90
35680;DHT22;21803;53.586;10.040;2022-09-29T08:51:30;21.80;47.90
35680;DHT22;21803;53.586;10.040;2022-09-29T08:54:01;21.80;47.90
35680;DHT22;21803;53.586;10.040;2022-09-29T08:56:28;21.80;47.90
35680;DHT22;21803;53.586;10.040;2022-09-29T08:58:53;21.80;47.90
35680;DHT22;21803;53.586;10.040;2022-09-29T09:02:19;21.80;47.90
35680;DHT22;21803;53.586;10.040;2022-09-29T09:07:52;21.80;47.90
35680;DHT22;21803;53.586;10.040;2022-09-29T09:13:24;21.80;47.90
35680;DHT22;21803;53.586;10.040;2022-09-29T09:19:09;21.80;47.90
35680;DHT22;21803;53.586;10.040;2022-09-29T09:21:46;21.80;47.90
35680;DHT22;21803;53.586;10.040;2022-09-29T09:24:21;21.90;48.00
35680;DHT22;21803;53.586;10.040;2022-09-29T09:26:49;21.80;47.90
35680;DHT22;21803;53.586;10.040;2022-09-29T09:29:28;21.80;47.90
35680;DHT22;21803;53.586;10.040;2022-09-29T09:32:18;21.80;48.00
35680;DHT22;21803;53.586;10.040;2022-09-29T09:35:03;21.80;48.00
35680;DHT22;21803;53.586;10.040;2022-09-29T09:37:38;21.80;48.00
35680;DHT22;21803;53.586;10.040;2022-09-29T09:42:42;21.80;48.00
35680;DHT22;21803;53.586;10.040;2022-09-29T09:45:36;21.80;47.90
35680;DHT22;21803;53.586;10.040;2022-09-29T09:48:12;21.80;47.90
35680;DHT22;21803;53.586;10.040;2022-09-29T09:50:40;21.80;48.60
35680;DHT22;21803;53.586;10.040;2022-09-29T09:53:36;21.80;47.90
35680;DHT22;21803;53.586;10.040;2022-09-29T09:56:12;21.80;48.00
35680;DHT22;21803;53.586;10.040;2022-09-29T09:58:59;21.80;47.90
35680;DHT22;21803;53.586;10.040;2022-09-29T10:01:28;21.80;48.00
35680;DHT22;21803;53.586;10.040;2022-09-29T10:03:54;21.80;48.00
35680;DHT22;21803;53.586;10.040;2022-09-29T10:06:22;21.80;48.00
35680;DHT22;21803;53.586;10.040;2022-09-29T10:08:49;21.80;48.00
35680;DHT22;21803;53.586;10.040;2022-09-29T10:11:29;21.80;48.00
35680;DHT22;21803;53.586;10.040;2022-09-29T10:14:03;21.80;48.00
35680;DHT22;21803;53.586;10.040;2022-09-29T10:16:42;21.80;48.00
35680;DHT22;21803;53.586;10.040;2022-09-29T10:19:09;21.80;48.60
35680;DHT22;21803;53.586;10.040;2022-09-29T10:21:37;21.80;48.00
35680;DHT22;21803;53.586;10.040;2022-09-29T10:24:05;21.80;47.90
35680;DHT22;21803;53.586;10.040;2022-09-29T10:26:42;21.80;48.00
35680;DHT22;21803;53.586;10.040;2022-09-29T10:29:28;21.80;48.00
35680;DHT22;21803;53.586;10.040;2022-09-29T10:32:13;21.90;48.00
35680;DHT22;21803;53.586;10.040;2022-09-29T10:34:41;21.80;48.00
35680;DHT22;21803;53.586;10.040;2022-09-29T10:37:35;21.80;48.00
35680;DHT22;21803;53.586;10.040;2022-09-29T10:42:36;21.80;48.00
35680;DHT22;21803;53.586;10.040;2022-09-29T10:45:25;21.80;48.00
35680;DHT22;21803;53.586;10.040;2022-09-29T10:50:30;21.80;48.00
35680;DHT22;21803;53.586;10.040;2022-09-29T10:52:58;21.80;48.00
35680;DHT22;21803;53.586;10.040;2022-09-29T10:55:29;21.80;48.00
35680;DHT22;21803;53.586;10.040;2022-09-29T11:01:02;21.80;48.00
35680;DHT22;21803;53.586;10.040;2022-09-29T11:03:31;21.80;48.00
35680;DHT22;21803;53.586;10.040;2022-09-29T11:06:02;21.80;48.00
35680;DHT22;21803;53.586;10.040;2022-09-29T11:08:29;21.80;48.10
35680;DHT22;21803;53.586;10.040;2022-09-29T11:11:20;21.80;48.10
35680;DHT22;21803;53.586;10.040;2022-09-29T11:13:46;21.80;48.10
35680;DHT22;21803;53.586;10.040;2022-09-29T11:16:13;21.80;48.10
35680;DHT22;21803;53.586;10.040;2022-09-29T11:18:40;21.80;48.10
35680;DHT22;21803;53.586;10.040;2022-09-29T11:27:13;21.80;48.10
35680;DHT22;21803;53.586;10.040;2022-09-29T11:29:58;21.80;48.10
35680;DHT22;21803;53.586;10.040;2022-09-29T11:38:24;21.80;48.10
35680;DHT22;21803;53.586;10.040;2022-09-29T11:44:26;21.80;48.10
35680;DHT22;21803;53.586;10.040;2022-09-29T11:52:45;21.80;48.10
35680;DHT22;21803;53.586;10.040;2022-09-29T11:55:40;21.80;48.10
35680;DHT22;21803;53.586;10.040;2022-09-29T11:58:30;21.80;48.10
35680;DHT22;21803;53.586;10.040;2022-09-29T12:03:40;21.80;48.20
35680;DHT22;21803;53.586;10.040;2022-09-29T12:09:41;21.80;48.20
35680;DHT22;21803;53.586;10.040;2022-09-29T12:12:20;21.80;48.20
35680;DHT22;21803;53.586;10.040;2022-09-29T12:15:15;21.90;48.30
35680;DHT22;21803;53.586;10.040;2022-09-29T12:17:46;21.80;48.20
35680;DHT22;21803;53.586;10.040;2022-09-29T12:20:18;21.80;48.20
35680;DHT22;21803;53.586;10.040;2022-09-29T12:22:47;21.80;48.20
35680;DHT22;21803;53.586;10.040;2022-09-29T12:25:19;21.80;48.30
35680;DHT22;21803;53.586;10.040;2022-09-29T12:27:47;21.80;48.30
35680;DHT22;21803;53.586;10.040;2022-09-29T12:30:19;21.80;48.20
35680;DHT22;21803;53.586;10.040;2022-09-29T12:32:50;21.80;48.30
35680;DHT22;21803;53.586;10.040;2022-09-29T12:35:33;21.80;48.20
35680;DHT22;21803;53.586;10.040;2022-09-29T12:38:21;21.80;48.30
35680;DHT22;21803;53.586;10.040;2022-09-29T12:41:16;21.80;48.30
35680;DHT22;21803;53.586;10.040;2022-09-29T12:46:44;21.80;48.30
35680;DHT22;21803;53.586;10.040;2022-09-29T12:49:32;21.80;48.30
35680;DHT22;21803;53.586;10.040;2022-09-29T12:52:02;21.80;48.40
35680;DHT22;21803;53.586;10.040;2022-09-29T12:54:53;21.80;48.30
35680;DHT22;21803;53.586;10.040;2022-09-29T12:57:26;21.80;48.30
35680;DHT22;21803;53.586;10.040;2022-09-29T13:00:02;21.80;48.30
35680;DHT22;21803;53.586;10.040;2022-09-29T13:05:44;21.80;48.30
35680;DHT22;21803;53.586;10.040;2022-09-29T13:14:22;21.80;48.40
35680;DHT22;21803;53.586;10.040;2022-09-29T13:19:29;21.80;48.40
35680;DHT22;21803;53.586;10.040;2022-09-29T13:22:26;21.80;48.40
35680;DHT22;21803;53.586;10.040;2022-09-29T13:27:38;21.80;48.40
35680;DHT22;21803;53.586;10.040;2022-09-29T13:30:19;21.80;48.40
35680;DHT22;21803;53.586;10.040;2022-09-29T13:35:40;21.80;48.40
35680;DHT22;21803;53.586;10.040;2022-09-29T13:38:10;21.80;48.40
35680;DHT22;21803;53.586;10.040;2022-09-29T13:40:38;21.80;48.40
35680;DHT22;21803;53.586;10.040;2022-09-29T13:43:04;21.80;48.50
35680;DHT22;21803;53.586;10.040;2022-09-29T13:50:55;21.80;48.40
35680;DHT22;21803;53.586;10.040;2022-09-29T13:55:53;21.80;48.40
35680;DHT22;21803;53.586;10.040;2022-09-29T14:01:01;21.80;48.40
35680;DHT22;21803;53.586;10.040;2022-09-29T14:03:41;21.80;48.40
35680;DHT22;21803;53.586;10.040;2022-09-29T14:06:24;21.80;48.40
35680;DHT22;21803;53.586;10.040;2022-09-29T14:08:57;21.00;48.00
35680;DHT22;21803;53.586;10.040;2022-09-29T14:11:29;21.80;48.40
35680;DHT22;21803;53.586;10.040;2022-09-29T14:19:14;21.80;48.40
35680;DHT22;21803;53.586;10.040;2022-09-29T14:21:50;21.70;48.40
35680;DHT22;21803;53.586;10.040;2022-09-29T14:27:16;21.80;48.40
35680;DHT22;21803;53.586;10.040;2022-09-29T14:29:54;21.80;48.40
35680;DHT22;21803;53.586;10.040;2022-09-29T14:35:38;21.80;48.40
35680;DHT22;21803;53.586;10.040;2022-09-29T14:38:15;21.80;48.40
35680;DHT22;21803;53.586;10.040;2022-09-29T14:43:46;21.70;48.40
35680;DHT22;21803;53.586;10.040;2022-09-29T15:00:17;21.70;48.40
35680;DHT22;21803;53.586;10.040;2022-09-29T15:02:46;21.80;48.50
35680;DHT22;21803;53.586;10.040;2022-09-29T15:05:33;21.70;48.50
35680;DHT22;21803;53.586;10.040;2022-09-29T15:08:00;21.70;48.50
35680;DHT22;21803;53.586;10.040;2022-09-29T15:10:29;21.70;48.50
35680;DHT22;21803;53.586;10.040;2022-09-29T15:13:31;21.70;48.50
35680;DHT22;21803;53.586;10.040;2022-09-29T15:16:03;21.70;48.50
35680;DHT22;21803;53.586;10.040;2022-09-29T15:26:50;21.70;48.50
35680;DHT22;21803;53.586;10.040;2022-09-29T15:29:17;21.70;48.50
35680;DHT22;21803;53.586;10.040;2022-09-29T15:31:44;23.50;49.40
35680;DHT22;21803;53.586;10.040;2022-09-29T15:34:16;21.80;48.60
35680;DHT22;21803;53.586;10.040;2022-09-29T15:36:51;21.70;48.60
35680;DHT22;21803;53.586;10.040;2022-09-29T15:42:08;21.70;48.60
35680;DHT22;21803;53.586;10.040;2022-09-29T15:44:38;21.70;48.60
35680;DHT22;21803;53.586;10.040;2022-09-29T15:47:03;21.80;48.60
35680;DHT22;21803;53.586;10.040;2022-09-29T15:49:29;21.70;48.60
35680;DHT22;21803;53.586;10.040;2022-09-29T15:52:01;21.70;48.60
35680;DHT22;21803;53.586;10.040;2022-09-29T15:54:35;21.70;48.60
35680;DHT22;21803;53.586;10.040;2022-09-29T15:57:04;21.70;48.60
35680;DHT22;21803;53.586;10.040;2022-09-29T15:59:53;21.80;48.70
35680;DHT22;21803;53.586;10.040;2022-09-29T16:02:30;21.70;48.60
35680;DHT22;21803;53.586;10.040;2022-09-29T16:04:59;21.70;48.70
35680;DHT22;21803;53.586;10.040;2022-09-29T16:07:29;21.70;48.60
35680;DHT22;21803;53.586;10.040;2022-09-29T16:10:22;21.80;48.70
35680;DHT22;21803;53.586;10.040;2022-09-29T16:12:52;21.70;48.60
35680;DHT22;21803;53.586;10.040;2022-09-29T16:15:41;21.70;48.70
35680;DHT22;21803;53.586;10.040;2022-09-29T16:20:56;21.70;48.70
35680;DHT22;21803;53.586;10.040;2022-09-29T16:23:36;21.80;48.70
35680;DHT22;21803;53.586;10.040;2022-09-29T16:26:19;21.70;48.70
35680;DHT22;21803;53.586;10.040;2022-09-29T16:29:00;21.70;48.70
35680;DHT22;21803;53.586;10.040;2022-09-29T16:31:29;21.70;48.70
35680;DHT22;21803;53.586;10.040;2022-09-29T16:33:57;21.70;48.70
35680;DHT22;21803;53.586;10.040;2022-09-29T16:36:31;21.80;48.70
35680;DHT22;21803;53.586;10.040;2022-09-29T16:39:02;21.70;48.70
35680;DHT22;21803;53.586;10.040;2022-09-29T16:41:37;21.70;48.70
35680;DHT22;21803;53.586;10.040;2022-09-29T16:49:17;21.70;48.80
35680;DHT22;21803;53.586;10.040;2022-09-29T16:51:45;21.70;48.80
35680;DHT22;21803;53.586;10.040;2022-09-29T16:54:19;21.80;48.80
35680;DHT22;21803;53.586;10.040;2022-09-29T16:56:47;21.70;48.80
35680;DHT22;21803;53.586;10.040;2022-09-29T16:59:16;21.70;48.80
35680;DHT22;21803;53.586;10.040;2022-09-29T17:01:44;21.70;48.80
35680;DHT22;21803;53.586;10.040;2022-09-29T17:04:11;21.70;48.80
35680;DHT22;21803;53.586;10.040;2022-09-29T17:06:37;21.70;48.80
35680;DHT22;21803;53.586;10.040;2022-09-29T17:09:05;21.70;48.80
35680;DHT22;21803;53.586;10.040;2022-09-29T17:11:31;21.70;48.80
35680;DHT22;21803;53.586;10.040;2022-09-29T17:13:57;21.70;48.80
35680;DHT22;21803;53.586;10.040;2022-09-29T17:16:23;21.70;48.80
35680;DHT22;21803;53.586;10.040;2022-09-29T17:18:51;21.70;48.90
35680;DHT22;21803;53.586;10.040;2022-09-29T17:21:18;21.70;48.80
35680;DHT22;21803;53.586;10.040;2022-09-29T17:23:44;21.70;48.80
35680;DHT22;21803;53.586;10.040;2022-09-29T17:26:24;21.60;48.80
35680;DHT22;21803;53.586;10.040;2022-09-29T17:29:09;21.70;48.80
35680;DHT22;21803;53.586;10.040;2022-09-29T17:31:35;21.70;48.80
35680;DHT22;21803;53.586;10.040;2022-09-29T17:34:01;21.70;48.80
35680;DHT22;21803;53.586;10.040;2022-09-29T17:36:32;21.70;48.80
35680;DHT22;21803;53.586;10.040;2022-09-29T17:38:57;21.70;48.90
35680;DHT22;21803;53.586;10.040;2022-09-29T17:41:23;21.70;48.80
35680;DHT22;21803;53.586;10.040;2022-09-29T17:43:48;21.70;48.90
35680;DHT22;21803;53.586;10.040;2022-09-29T17:46:15;21.70;48.80
35680;DHT22;21803;53.586;10.040;2022-09-29T17:48:40;21.70;48.80
35680;DHT22;21803;53.586;10.040;2022-09-29T17:51:14;21.70;48.90
35680;DHT22;21803;53.586;10.040;2022-09-29T17:53:42;21.70;48.80
35680;DHT22;21803;53.586;10.040;2022-09-29T17:56:17;21.70;48.80
35680;DHT22;21803;53.586;10.040;2022-09-29T17:58:43;21.70;48.80
35680;DHT22;21803;53.586;10.040;2022-09-29T18:01:09;21.70;48.80
35680;DHT22;21803;53.586;10.040;2022-09-29T18:03:35;21.70;48.80
35680;DHT22;21803;53.586;10.040;2022-09-29T18:06:00;21.70;48.80
35680;DHT22;21803;53.586;10.040;2022-09-29T18:08:27;21.70;48.90